Chartley, Massachusetts
Current Conditions -  °F | °C
As of 9:52 AM on Friday 28 Nov 2014 (Local Time) from KTAN Reporting Station
Overcast Overcast  
Wind Chill: 24°   Ceiling: 4600
Heat Index: 32°   Visibility: 10mi
Dew Point: 25°   Wind: 9mph
Humidity: 75%   Direction: 330°NNW
Pressure: 30.05"   Gusts: NA
Location:  41.95°N, 71.23°W
Report Text: KTAN 281452Z AUTO 33008KT 10SM FEW017 BKN046 OVC070 00/M04 A3005 RMK AO2 SLP176 60001 T00001039 50009
Loading
Personal Weather Stations






























Interactive Weather Map New forecast layout! Learn more

10-Day Weather Forecast

Advertisements
Track Severe Weather on mobile